Farmington ASC Data

Date Time Air Temperature Relative Humidity Dewpoint Windchill Heat Index Wind Speed Wind Dir. Rain Solar Radiation Soil Temperature
2m 2m 3m 3m 10cm
US/Mountain F % F F F MPH deg in MJ/m^2 F
max avg avg
2020-08-01 00:05:00 66.6 39.2 41.0 66.6 66.6 2.4 3.5 2.4 75.4 54.7 0.00 0.0000000 72.4
2020-08-01 00:10:00 66.5 38.4 40.4 66.5 66.5 1.3 3.3 2.4 74.6 56.0 0.00 0.0000000 72.4
2020-08-01 00:15:00 66.4 38.1 40.0 66.4 66.4 1.5 3.1 2.1 75.7 67.8 0.00 0.0000000 72.3
2020-08-01 00:20:00 66.7 37.4 39.9 66.7 66.7 1.7 2.8 1.8 52.1 50.8 0.00 0.0000000 72.2
2020-08-01 00:25:00 66.7 35.7 38.7 66.7 66.7 2.4 2.6 2.0 55.6 50.9 0.00 0.0000000 72.1
2020-08-01 00:30:00 67.1 35.7 39.0 67.1 67.1 2.8 3.0 2.4 56.0 57.4 0.00 0.0000000 72.1
2020-08-01 00:35:00 66.6 37.9 40.2 66.6 66.6 1.7 3.3 2.5 41.1 53.8 0.00 0.0000000 72.0
2020-08-01 00:40:00 66.5 36.5 39.1 66.5 66.5 2.6 3.7 2.3 139.3 76.2 0.00 0.0000000 71.9
2020-08-01 00:45:00 67.4 34.6 38.5 67.4 67.4 2.2 3.0 2.2 46.8 92.1 0.00 0.0000000 71.8
2020-08-01 00:50:00 67.8 33.3 37.9 67.8 67.8 2.8 4.0 2.2 30.0 56.6 0.00 0.0000000 71.7
2020-08-01 00:55:00 69.1 32.8 38.6 69.1 69.1 2.1 4.7 2.8 80.4 41.1 0.00 0.0000000 71.7
2020-08-01 01:00:00 69.3 35.6 41.0 69.3 69.3 4.7 4.7 2.6 0.0 33.5 0.00 0.0000000 71.6
2020-08-01 01:05:00 68.8 36.6 41.2 68.8 68.8 1.3 3.5 1.9 228.0 30.7 0.00 0.0000000 71.5
2020-08-01 01:10:00 69.2 34.7 40.2 69.2 69.2 1.5 2.6 2.0 122.3 125.8 0.00 0.0000000 71.4
2020-08-01 01:15:00 68.3 38.2 41.8 68.3 68.3 1.5 3.3 2.4 48.9 119.1 0.00 0.0000000 71.4
2020-08-01 01:20:00 67.6 37.5 40.8 67.6 67.6 0.8 3.0 1.7 59.6 28.9 0.00 0.0000000 71.3
2020-08-01 01:25:00 67.4 37.3 40.4 67.4 67.4 2.6 2.6 1.1 118.5 63.0 0.00 0.0000000 71.2
2020-08-01 01:30:00 68.0 37.6 41.1 68.0 68.0 1.2 3.1 2.0 124.6 83.7 0.00 0.0000000 71.2
2020-08-01 01:35:00 68.0 37.5 41.1 68.0 68.0 2.2 3.1 1.6 108.7 92.9 0.00 0.0000000 71.1
2020-08-01 01:40:00 68.0 37.5 41.1 68.0 68.0 1.5 2.8 1.6 88.3 95.8 0.00 0.0000000 71.1
2020-08-01 01:45:00 68.5 36.1 40.5 68.5 68.5 2.8 3.0 2.1 126.6 99.1 0.00 0.0000000 71.0
2020-08-01 01:50:00 68.8 36.1 40.8 68.8 68.8 1.7 2.8 1.8 118.2 90.8 0.00 0.0000000 70.9
2020-08-01 01:55:00 68.8 34.9 40.0 68.8 68.8 2.4 3.5 1.9 102.9 109.4 0.00 0.0000000 70.9
2020-08-01 02:00:00 69.0 35.0 40.2 69.0 69.0 1.3 3.7 2.1 102.5 64.1 0.00 0.0000000 70.8
2020-08-01 02:05:00 69.7 34.1 40.2 69.7 69.7 2.8 4.4 2.9 137.2 101.7 0.00 0.0000000 70.8
2020-08-01 02:10:00 70.0 33.5 40.0 70.0 70.0 3.8 4.9 3.0 80.2 107.5 0.00 0.0000000 70.7
2020-08-01 02:15:00 69.9 32.3 39.0 69.9 69.9 2.2 4.0 3.1 69.9 99.3 0.00 0.0000000 70.6
2020-08-01 02:20:00 69.9 30.3 37.3 69.9 69.9 4.7 6.9 4.5 59.8 102.7 0.00 0.0000000 70.6
2020-08-01 02:25:00 70.5 30.3 37.8 70.5 70.5 8.3 9.0 5.9 129.2 116.2 0.00 0.0000000 70.5
2020-08-01 02:30:00 70.6 31.4 38.8 70.6 70.6 6.9 12.1 7.3 126.5 115.0 0.00 0.0000000 70.5
2020-08-01 02:35:00 70.5 31.7 38.9 70.5 70.5 5.3 10.3 5.5 91.8 105.5 0.00 0.0000000 70.4
2020-08-01 02:40:00 70.2 31.6 38.6 70.2 70.2 3.5 7.8 3.4 47.0 103.2 0.00 0.0000000 70.3
2020-08-01 02:45:00 70.1 33.0 39.6 70.1 70.1 3.5 6.5 4.1 117.2 111.2 0.00 0.0000000 70.3
2020-08-01 02:50:00 70.1 33.3 39.8 70.1 70.1 4.7 7.2 4.9 82.4 107.5 0.00 0.0000000 70.2
2020-08-01 02:55:00 69.7 33.7 39.9 69.7 69.7 6.2 8.0 5.4 112.5 108.8 0.00 0.0000000 70.2
2020-08-01 03:00:00 69.6 34.6 40.5 69.6 69.6 4.9 8.7 5.9 97.6 111.6 0.00 0.0000000 70.1
2020-08-01 03:05:00 69.4 35.1 40.7 69.4 69.4 6.2 8.3 6.1 75.9 102.0 0.00 0.0000000 70.1
2020-08-01 03:10:00 69.4 35.3 40.7 69.4 69.4 7.4 8.8 5.2 72.2 113.4 0.00 0.0000000 70.0
2020-08-01 03:15:00 69.1 35.8 40.9 69.1 69.1 5.8 10.3 5.9 130.2 115.0 0.00 0.0000000 70.0
2020-08-01 03:20:00 68.9 36.7 41.4 68.9 68.9 5.6 8.0 5.2 103.2 100.5 0.00 0.0000000 69.9
2020-08-01 03:25:00 68.5 37.1 41.3 68.5 68.5 6.0 8.0 5.8 122.8 109.0 0.00 0.0000000 69.8
2020-08-01 03:30:00 68.6 38.1 42.0 68.6 68.6 5.8 8.3 4.9 107.4 101.6 0.00 0.0000000 69.8
2020-08-01 03:35:00 68.1 38.5 41.8 68.1 68.1 3.1 7.8 4.7 126.3 109.3 0.00 0.0000000 69.7
2020-08-01 03:40:00 67.8 38.5 41.6 67.8 67.8 3.0 4.9 3.3 131.4 109.3 0.00 0.0000000 69.7
2020-08-01 03:45:00 66.9 38.9 41.1 66.9 66.9 3.0 4.0 2.6 84.1 102.8 0.00 0.0000000 69.7
2020-08-01 03:50:00 66.6 39.6 41.2 66.6 66.6 3.1 5.1 2.8 88.4 107.8 0.00 0.0000000 69.6
2020-08-01 03:55:00 66.3 40.5 41.6 66.3 66.3 2.2 4.9 2.5 113.9 105.0 0.00 0.0000000 69.5
2020-08-01 04:00:00 66.1 41.7 42.2 66.1 66.1 2.8 4.9 3.3 103.1 94.8 0.00 0.0000000 69.5
2020-08-01 04:05:00 66.5 41.6 42.4 66.5 66.5 3.8 5.5 3.6 100.3 110.1 0.00 0.0000000 69.4
2020-08-01 04:10:00 66.6 41.8 42.7 66.6 66.6 3.0 5.3 3.3 58.7 71.5 0.00 0.0000000 69.4
2020-08-01 04:15:00 67.1 41.4 42.8 67.1 67.1 4.2 7.2 4.4 345.5 78.9 0.00 0.0000000 69.4
2020-08-01 04:20:00 67.5 40.8 42.8 67.5 67.5 4.6 6.9 4.7 66.5 99.7 0.00 0.0000000 69.3
2020-08-01 04:25:00 67.6 39.4 42.0 67.6 67.6 4.7 6.7 4.4 106.6 91.3 0.00 0.0000000 69.3
2020-08-01 04:30:00 67.5 38.6 41.4 67.5 67.5 6.2 6.2 4.2 59.7 73.1 0.00 0.0000000 69.2
2020-08-01 04:35:00 67.2 39.0 41.5 67.2 67.2 6.0 6.9 3.8 129.8 82.4 0.00 0.0000000 69.2
2020-08-01 04:40:00 67.4 38.7 41.4 67.4 67.4 3.5 6.2 4.6 160.6 85.9 0.00 0.0000000 69.1
2020-08-01 04:45:00 67.5 38.8 41.6 67.5 67.5 2.4 5.8 3.5 237.7 105.0 0.00 0.0000000 69.1
2020-08-01 04:50:00 67.4 38.7 41.4 67.4 67.4 6.7 6.7 3.9 90.7 100.7 0.00 0.0000000 69.0
2020-08-01 04:55:00 67.4 39.2 41.7 67.4 67.4 4.7 7.8 4.5 1.0 101.8 0.00 0.0000000 69.0
2020-08-01 05:00:00 67.1 39.5 41.7 67.1 67.1 3.3 7.1 4.6 345.1 82.3 0.00 0.0000000 69.0
2020-08-01 05:05:00 67.1 39.8 41.8 67.1 67.1 5.8 6.9 4.5 58.9 97.1 0.00 0.0000000 69.0
2020-08-01 05:10:00 67.2 39.5 41.8 67.2 67.2 7.4 9.2 4.8 143.1 93.0 0.00 0.0000000 68.9
2020-08-01 05:15:00 67.3 39.9 42.1 67.3 67.3 5.8 9.6 5.0 102.5 91.0 0.00 0.0000000 68.9
2020-08-01 05:20:00 67.0 40.5 42.2 67.0 67.0 3.7 7.1 4.2 12.3 90.8 0.00 0.0000000 68.8
2020-08-01 05:25:00 67.1 40.3 42.1 67.1 67.1 3.3 8.3 4.6 64.7 99.3 0.00 0.0000000 68.8
2020-08-01 05:30:00 66.9 40.7 42.2 66.9 66.9 3.7 7.1 4.6 119.8 97.4 0.00 0.0000000 68.8
2020-08-01 05:35:00 67.2 41.1 42.8 67.2 67.2 3.8 7.6 4.7 91.6 99.5 0.00 0.0000000 68.7
2020-08-01 05:40:00 66.6 41.5 42.5 66.6 66.6 4.6 6.5 4.0 52.6 104.7 0.00 0.0000000 68.7
2020-08-01 05:45:00 66.3 41.9 42.5 66.3 66.3 4.0 6.9 4.4 54.2 87.2 0.00 0.0000000 68.6
2020-08-01 05:50:00 66.6 41.5 42.5 66.6 66.6 4.0 7.1 4.6 100.1 83.3 0.00 0.0000000 68.6
2020-08-01 05:55:00 66.5 41.9 42.6 66.5 66.5 3.1 7.8 4.5 44.9 89.3 0.00 0.0000000 68.6
2020-08-01 06:00:00 66.3 42.0 42.5 66.3 66.3 3.8 6.3 4.2 27.5 88.7 0.00 0.0000000 68.5
2020-08-01 06:05:00 66.3 41.9 42.5 66.3 66.3 3.3 7.6 4.4 112.1 67.2 0.00 0.0010000 68.5
2020-08-01 06:10:00 66.5 42.0 42.7 66.5 66.5 3.3 8.3 4.0 89.5 77.9 0.00 0.0010000 68.4
2020-08-01 06:15:00 66.1 42.5 42.7 66.1 66.1 6.0 7.4 4.2 56.6 68.2 0.00 0.0020000 68.4
2020-08-01 06:20:00 66.1 42.4 42.6 66.1 66.1 3.0 6.3 3.8 138.2 44.3 0.00 0.0030000 68.4
2020-08-01 06:25:00 66.0 42.7 42.7 66.0 66.0 4.6 7.1 4.2 24.3 37.1 0.00 0.0050000 68.4
2020-08-01 06:30:00 66.0 42.6 42.6 66.0 66.0 4.2 5.6 3.8 292.9 48.4 0.00 0.0060000 68.3
2020-08-01 06:35:00 65.8 42.4 42.3 65.8 65.8 4.7 6.7 4.0 92.6 52.9 0.00 0.0090000 68.3
2020-08-01 06:40:00 66.0 43.1 42.9 66.0 66.0 2.8 7.1 3.6 43.2 19.8 0.00 0.0130000 68.2
2020-08-01 06:45:00 65.8 43.1 42.7 65.8 65.8 3.7 5.3 3.3 101.4 91.5 0.00 0.0180000 68.2
2020-08-01 06:50:00 65.8 42.9 42.6 65.8 65.8 2.8 5.1 3.2 111.3 62.6 0.00 0.0200000 68.1
2020-08-01 06:55:00 66.0 42.6 42.7 66.0 66.0 1.9 5.5 3.4 166.7 47.2 0.00 0.0180000 68.1
2020-08-01 07:00:00 65.8 42.3 42.3 65.8 65.8 3.8 6.7 3.4 41.6 43.6 0.00 0.0180000 68.1
2020-08-01 07:05:00 65.9 42.9 42.7 65.9 65.9 2.6 4.2 3.0 310.5 40.0 0.00 0.0280000 68.1
2020-08-01 07:10:00 66.1 42.6 42.7 66.1 66.1 3.3 6.5 3.3 293.6 36.2 0.00 0.0430000 68.1
2020-08-01 07:15:00 66.5 41.9 42.6 66.5 66.5 5.8 5.8 4.0 79.8 41.4 0.00 0.0440000 68.0
2020-08-01 07:20:00 66.8 41.6 42.7 66.8 66.8 4.2 5.8 3.7 19.6 41.3 0.00 0.0430000 68.0
2020-08-01 07:25:00 66.9 41.9 43.0 66.9 66.9 4.6 4.6 3.6 78.7 42.8 0.00 0.0320000 68.0
2020-08-01 07:30:00 67.0 42.0 43.1 67.0 67.0 3.5 5.5 3.1 117.7 68.0 0.00 0.1410000 68.0
2020-08-01 07:35:00 67.5 42.2 43.7 67.5 67.5 2.8 6.5 3.8 11.7 56.9 0.00 0.0540000 67.9
2020-08-01 07:40:00 67.4 42.1 43.5 67.4 67.4 4.6 5.8 3.7 119.4 63.9 0.00 0.0390000 67.9
2020-08-01 07:45:00 67.3 41.4 43.1 67.3 67.3 5.6 8.5 4.1 131.7 83.4 0.00 0.0520000 67.9
2020-08-01 07:50:00 67.4 42.1 43.6 67.4 67.4 3.8 5.8 3.8 162.9 83.3 0.00 0.0700000 67.9
2020-08-01 07:55:00 67.6 41.4 43.3 67.6 67.6 3.7 5.3 3.5 313.1 93.4 0.00 0.1390000 67.9
2020-08-01 08:00:00 69.4 39.7 43.8 69.4 69.4 2.8 6.3 4.0 153.5 113.6 0.00 0.3090000 67.9
2020-08-01 08:05:00 71.4 37.8 44.3 71.4 71.4 4.4 4.7 3.5 104.1 69.0 0.00 0.3230000 67.9
2020-08-01 08:10:00 72.5 36.3 44.3 72.5 72.5 4.6 6.7 4.0 92.7 37.7 0.00 0.3160000 67.8
2020-08-01 08:15:00 72.7 35.8 44.1 72.7 72.7 7.1 7.1 4.0 47.7 51.3 0.00 0.3310000 67.9
2020-08-01 08:20:00 72.3 36.8 44.4 72.3 72.3 5.8 8.1 5.5 59.0 45.1 0.00 0.1430000 67.9
2020-08-01 08:25:00 72.7 36.2 44.3 72.7 72.7 8.1 8.1 4.8 58.5 51.0 0.00 0.3660000 67.9
2020-08-01 08:30:00 73.5 35.5 44.5 73.5 73.5 4.4 9.0 4.8 344.1 61.0 0.00 0.3920000 67.9
2020-08-01 08:35:00 73.8 34.6 44.2 73.8 73.8 7.4 9.0 5.2 276.9 37.4 0.00 0.4100000 68.0
2020-08-01 08:40:00 74.2 35.7 45.3 74.2 74.2 6.0 8.8 5.6 61.7 31.9 0.00 0.4080000 68.1
2020-08-01 08:45:00 75.4 34.3 45.3 75.4 75.4 4.2 9.0 4.3 329.2 66.6 0.00 0.4070000 68.1
2020-08-01 08:50:00 75.4 35.2 46.0 75.4 75.4 3.5 6.7 3.9 19.1 42.2 0.00 0.4210000 68.2
2020-08-01 08:55:00 75.8 35.2 46.3 75.8 75.8 2.8 8.5 4.6 181.8 84.0 0.00 0.4380000 68.2
2020-08-01 09:00:00 75.8 33.7 45.2 75.8 75.8 3.3 9.9 4.8 326.9 24.2 0.00 0.4530000 68.3
2020-08-01 09:05:00 76.2 32.7 44.7 76.2 76.2 4.0 8.5 5.4 92.9 39.8 0.00 0.4680000 68.4
2020-08-01 09:10:00 76.7 32.4 45.0 76.7 76.7 3.1 6.3 4.8 94.2 90.2 0.00 0.4820000 68.5
2020-08-01 09:15:00 77.3 31.6 44.8 77.3 77.3 3.8 7.2 4.4 103.9 100.7 0.00 0.4970000 68.6
2020-08-01 09:20:00 77.6 31.9 45.4 77.6 77.6 4.4 9.2 4.9 41.8 80.3 0.00 0.5150000 68.6
2020-08-01 09:25:00 78.0 30.8 44.7 78.0 78.0 6.0 6.0 4.1 150.7 92.9 0.00 0.5290000 68.7
2020-08-01 09:30:00 78.3 31.3 45.4 78.3 78.3 6.0 8.1 4.6 113.5 89.6 0.00 0.5440000 68.8
2020-08-01 09:35:00 78.8 30.7 45.4 78.8 78.8 3.7 7.2 4.2 12.2 97.1 0.00 0.5600000 68.9
2020-08-01 09:40:00 78.2 31.7 45.7 78.2 78.2 5.6 7.2 4.9 93.6 57.5 0.00 0.5720000 69.0
2020-08-01 09:45:00 78.3 34.0 47.7 78.3 78.3 1.9 7.2 4.2 206.3 52.2 0.00 0.5860000 69.1
2020-08-01 09:50:00 79.1 31.7 46.5 79.1 79.1 3.0 7.1 4.4 128.7 98.2 0.00 0.6020000 69.2
2020-08-01 09:55:00 80.1 31.5 47.1 80.1 80.1 2.6 6.0 3.8 88.1 88.3 0.00 0.6150000 69.3
2020-08-01 10:00:00 80.3 32.9 48.5 80.3 80.3 4.2 7.8 4.5 43.6 77.3 0.00 0.6310000 69.4
2020-08-01 10:05:00 80.7 29.1 45.6 80.7 80.7 4.6 6.3 3.9 35.0 75.3 0.00 0.6460000 69.6
2020-08-01 10:10:00 81.2 29.3 46.3 81.2 81.2 3.1 5.3 3.2 82.2 96.8 0.00 0.6590000 69.7
2020-08-01 10:15:00 81.5 30.4 47.4 81.5 81.5 4.2 9.6 4.3 94.6 110.5 0.00 0.6770000 69.8
2020-08-01 10:20:00 81.2 28.2 45.2 81.2 81.2 4.6 5.8 3.9 16.7 64.4 0.00 0.6930000 69.9
2020-08-01 10:25:00 81.8 32.9 49.8 81.8 81.8 3.0 7.6 3.8 275.6 76.7 0.00 0.7080000 70.1
2020-08-01 10:30:00 82.5 28.2 46.3 82.5 82.5 3.1 6.9 4.3 20.5 101.2 0.00 0.7270000 70.3
2020-08-01 10:35:00 82.6 27.8 46.0 82.6 82.6 7.8 9.2 5.0 72.4 93.9 0.00 0.7450000 70.4
2020-08-01 10:40:00 82.4 29.8 47.7 82.4 82.4 3.3 10.5 5.9 121.7 108.8 0.00 0.7890000 70.6
2020-08-01 10:45:00 83.2 28.7 47.4 83.2 83.2 8.5 9.0 4.6 119.6 114.2 0.00 0.7770000 70.8
2020-08-01 10:50:00 82.1 29.1 46.8 82.1 82.1 9.7 11.0 8.0 115.3 127.2 0.00 0.7670000 71.0
2020-08-01 10:55:00 81.5 29.2 46.4 81.5 81.5 8.5 10.8 7.4 125.1 135.6 0.00 0.7640000 71.1
2020-08-01 11:00:00 82.0 30.4 47.9 82.0 82.0 3.5 9.0 5.8 311.0 118.0 0.00 0.7760000 71.3
2020-08-01 11:05:00 84.0 27.5 46.9 84.0 84.0 6.3 7.2 4.5 111.6 108.7 0.00 0.6320000 71.4
2020-08-01 11:10:00 83.7 26.4 45.6 83.7 83.7 4.0 7.4 4.5 135.8 106.3 0.00 0.8390000 71.6
2020-08-01 11:15:00 83.4 29.2 48.0 83.4 83.4 7.2 10.5 8.1 135.2 139.0 0.00 0.8350000 71.7
2020-08-01 11:20:00 83.2 28.6 47.2 83.2 83.2 7.4 11.2 7.6 142.5 148.5 0.00 0.8570000 71.9
2020-08-01 11:25:00 84.0 29.4 48.7 84.0 84.0 8.8 10.6 7.9 139.5 149.5 0.00 0.8520000 72.0
2020-08-01 11:30:00 83.6 28.5 47.5 83.6 83.6 10.3 11.0 8.6 124.0 132.0 0.00 0.8340000 72.2
2020-08-01 11:35:00 84.0 29.5 48.7 84.0 84.0 7.6 9.4 6.4 147.4 141.4 0.00 0.8350000 72.3
2020-08-01 11:40:00 84.2 28.1 47.7 84.2 84.2 6.0 10.6 7.5 135.4 135.1 0.00 0.8420000 72.4
2020-08-01 11:45:00 84.6 25.8 45.8 84.6 84.6 9.9 10.8 7.0 144.6 143.9 0.00 0.8470000 72.6
2020-08-01 11:50:00 84.3 26.9 46.6 84.3 84.3 6.0 10.8 7.0 138.5 145.0 0.00 0.8520000 72.7
2020-08-01 11:55:00 85.2 26.7 47.1 85.2 85.2 5.3 12.6 7.7 148.1 148.7 0.00 0.8710000 72.8
2020-08-01 12:00:00 85.4 29.2 49.7 85.4 85.4 6.7 9.9 6.5 105.2 127.6 0.00 0.8870000 73.0
2020-08-01 12:05:00 86.1 24.9 46.1 86.1 86.1 2.6 8.1 4.1 13.8 114.4 0.00 0.6010000 73.1
2020-08-01 12:10:00 85.7 42.9 60.5 85.7 85.6 2.6 5.3 3.3 188.8 339.3 0.00 0.7480000 73.3
2020-08-01 12:15:00 87.1 26.7 48.8 87.1 87.1 2.1 6.7 3.8 319.3 108.6 0.00 0.7720000 73.4
2020-08-01 12:20:00 86.9 29.0 50.8 86.9 86.9 3.5 7.8 4.8 148.2 47.9 0.00 0.9160000 73.6
2020-08-01 12:25:00 88.2 27.0 50.0 88.2 88.2 6.7 10.1 5.3 68.5 112.1 0.00 0.9530000 73.8
2020-08-01 12:30:00 88.1 24.5 47.3 88.1 88.1 4.6 6.2 3.8 9.8 63.3 0.00 0.8720000 74.0
2020-08-01 12:35:00 86.3 34.7 55.2 86.3 86.3 2.1 4.9 3.5 221.6 325.1 0.00 0.9220000 74.2
2020-08-01 12:40:00 88.1 24.3 47.2 88.1 88.1 4.2 7.1 4.1 105.9 129.0 0.00 0.9170000 74.4
2020-08-01 12:45:00 88.6 24.9 48.2 88.6 88.6 3.8 7.8 4.5 90.6 65.2 0.00 0.9150000 74.6
2020-08-01 12:50:00 89.0 23.8 47.4 89.0 89.0 2.1 4.9 3.2 83.8 108.9 0.00 0.9160000 74.8
2020-08-01 12:55:00 88.7 23.3 46.5 88.7 88.7 4.9 6.0 3.1 129.6 72.6 0.00 0.9100000 75.0
2020-08-01 13:00:00 88.6 22.8 45.8 88.6 88.6 3.5 7.6 4.3 188.5 150.5 0.00 0.9130000 75.2
2020-08-01 13:05:00 88.9 21.9 45.1 88.9 88.9 8.5 8.5 3.8 159.0 169.2 0.00 0.9150000 75.4
2020-08-01 13:10:00 88.1 30.3 53.1 88.1 88.1 1.3 8.5 5.4 106.8 141.5 0.00 0.9130000 75.6
2020-08-01 13:15:00 88.6 23.5 46.6 88.6 88.6 4.7 9.6 5.8 165.2 149.6 0.00 0.9200000 75.8
2020-08-01 13:20:00 89.0 20.9 43.9 89.0 89.0 9.6 11.9 6.5 135.4 160.5 0.00 0.6860000 75.9
2020-08-01 13:25:00 88.9 23.8 47.2 88.9 88.9 8.5 10.3 7.5 138.8 157.0 0.00 0.8770000 76.1
2020-08-01 13:30:00 88.9 21.6 44.7 88.9 88.9 8.1 10.5 7.4 179.8 165.2 0.00 0.9200000 76.2
2020-08-01 13:35:00 89.6 20.3 43.6 89.6 89.6 5.5 15.3 9.0 143.1 163.9 0.00 0.9170000 76.4
2020-08-01 13:40:00 89.1 22.0 45.3 89.1 89.1 5.6 10.5 7.1 206.3 153.6 0.00 0.9150000 76.5
2020-08-01 13:45:00 89.8 20.8 44.5 89.8 89.8 4.7 8.3 5.0 103.5 152.0 0.00 0.9130000 76.6
2020-08-01 13:50:00 90.1 21.4 45.4 90.1 90.1 9.9 10.1 4.9 148.9 138.6 0.00 0.9100000 76.7
2020-08-01 13:55:00 90.1 20.2 43.9 90.1 90.1 3.5 9.9 5.6 161.4 158.4 0.00 0.9080000 76.8
2020-08-01 14:00:00 90.0 20.6 44.4 90.0 90.0 5.8 7.4 5.7 189.0 150.1 0.00 0.9050000 76.9
2020-08-01 14:05:00 89.4 25.5 49.5 89.4 89.4 1.3 7.1 5.0 11.1 215.3 0.00 0.9020000 77.0
2020-08-01 14:10:00 89.8 20.7 44.4 89.8 89.8 2.8 7.1 3.8 308.5 234.5 0.00 0.8960000 77.1
2020-08-01 14:15:00 90.6 23.1 47.9 90.6 90.6 10.1 10.1 4.6 142.0 189.7 0.00 0.8980000 77.2
2020-08-01 14:20:00 90.4 24.0 48.8 90.4 90.4 6.7 9.6 6.5 223.6 185.7 0.00 0.9000000 77.3
2020-08-01 14:25:00 90.1 25.7 50.3 90.1 90.1 5.6 11.2 7.7 238.2 214.0 0.00 0.9080000 77.4
2020-08-01 14:30:00 90.3 20.3 44.2 90.3 90.3 4.6 9.7 5.1 258.9 233.2 0.00 0.9030000 77.6
2020-08-01 14:35:00 91.0 18.6 42.5 91.0 91.0 7.2 10.3 7.3 225.5 206.2 0.00 0.8880000 77.7
2020-08-01 14:40:00 90.8 17.8 41.2 90.8 90.8 2.6 7.8 5.2 241.2 222.1 0.00 0.8750000 77.8
2020-08-01 14:45:00 91.1 20.2 44.7 91.1 91.1 4.7 4.7 2.7 225.2 280.6 0.00 0.8640000 77.9
2020-08-01 14:50:00 91.5 16.7 40.0 91.5 91.5 5.8 7.4 4.3 231.5 223.2 0.00 0.8560000 78.0
2020-08-01 14:55:00 90.9 21.3 46.0 90.9 90.9 6.2 8.1 4.9 241.8 244.0 0.00 0.8480000 78.2
2020-08-01 15:00:00 90.3 21.1 45.2 90.3 90.3 4.6 6.2 4.3 4.5 301.7 0.00 0.8440000 78.3
2020-08-01 15:05:00 91.2 20.7 45.5 91.2 91.2 6.3 6.3 3.4 219.6 271.3 0.00 0.8370000 78.4
2020-08-01 15:10:00 90.6 14.6 35.9 90.6 90.6 3.5 9.2 5.1 190.3 241.9 0.00 0.8280000 78.5
2020-08-01 15:15:00 90.9 22.9 47.9 90.9 90.9 2.4 5.5 3.5 285.2 266.9 0.00 0.8220000 78.7
2020-08-01 15:20:00 90.9 16.9 40.0 90.9 90.9 7.1 9.0 5.4 255.6 255.3 0.00 0.8150000 78.8
2020-08-01 15:25:00 91.2 19.1 43.3 91.2 91.2 7.8 9.7 7.1 239.1 246.3 0.00 0.8040000 78.9
2020-08-01 15:30:00 91.8 13.6 35.1 91.8 91.8 4.4 9.9 6.4 214.2 219.2 0.00 0.7950000 79.0
2020-08-01 15:35:00 92.2 15.2 38.3 92.2 92.2 5.1 7.8 5.2 222.1 221.2 0.00 0.7820000 79.1
2020-08-01 15:40:00 92.2 23.4 49.5 92.2 92.2 3.1 6.0 3.4 264.9 269.3 0.00 0.7730000 79.2
2020-08-01 15:45:00 92.6 14.1 36.7 92.6 92.6 4.0 4.0 2.8 207.1 253.7 0.00 0.7600000 79.3
2020-08-01 15:50:00 93.7 13.2 35.9 93.7 93.7 3.0 3.8 2.1 195.5 224.6 0.00 0.7590000 79.4
2020-08-01 15:55:00 92.8 22.1 48.5 92.8 92.8 4.9 7.4 4.4 252.9 239.6 0.00 0.7500000 79.4
2020-08-01 16:00:00 91.2 18.6 42.6 91.2 91.2 6.9 8.7 6.5 295.9 271.4 0.00 0.7320000 79.5
2020-08-01 16:05:00 91.6 15.0 37.5 91.6 91.6 3.8 6.5 4.1 239.7 260.5 0.00 0.7210000 79.5
2020-08-01 16:10:00 92.6 16.5 40.6 92.6 92.6 4.9 5.6 3.0 304.4 275.1 0.00 0.7190000 79.5
2020-08-01 16:15:00 92.5 20.2 45.8 92.5 92.5 4.6 8.7 4.2 298.2 339.8 0.00 0.7120000 79.5
2020-08-01 16:20:00 91.9 16.9 40.7 91.9 91.9 6.0 9.9 6.4 273.9 291.8 0.00 0.7040000 79.5
2020-08-01 16:25:00 92.3 16.6 40.6 92.3 92.3 3.3 6.5 4.2 280.9 317.7 0.00 0.6890000 79.5
2020-08-01 16:30:00 91.6 15.3 38.0 91.6 91.6 6.2 10.3 6.2 304.3 340.2 0.00 0.6860000 79.5
2020-08-01 16:35:00 92.0 19.4 44.3 92.0 92.0 2.4 8.5 4.7 30.4 324.7 0.00 0.6820000 79.5
2020-08-01 16:40:00 92.2 17.1 41.3 92.2 92.2 4.6 10.3 5.4 320.9 322.0 0.00 0.6850000 79.5
2020-08-01 16:45:00 91.9 15.4 38.3 91.9 91.9 4.0 9.6 5.2 324.7 341.2 0.00 0.5870000 79.5
2020-08-01 16:50:00 91.8 17.2 41.1 91.8 91.8 4.9 6.2 3.3 0.7 296.0 0.00 0.3900000 79.5
2020-08-01 16:55:00 92.0 19.5 44.5 92.0 92.0 3.0 5.5 4.0 7.9 328.4 0.00 0.6840000 79.5
2020-08-01 17:00:00 92.0 13.7 35.4 92.0 92.0 3.5 7.6 5.4 295.7 329.2 0.00 0.6310000 79.4
2020-08-01 17:05:00 92.2 20.1 45.4 92.2 92.2 4.6 7.6 4.9 284.3 282.6 0.00 0.5620000 79.4
2020-08-01 17:10:00 91.1 17.9 41.5 91.1 91.1 5.3 7.2 5.6 1.0 331.9 0.00 0.2340000 79.4
2020-08-01 17:15:00 90.6 16.0 38.2 90.6 90.6 3.5 5.8 3.8 24.0 357.9 0.00 0.1690000 79.4
2020-08-01 17:20:00 89.1 18.8 41.2 89.1 89.1 10.5 10.5 6.3 12.1 12.7 0.00 0.1670000 79.3
2020-08-01 17:25:00 89.3 17.0 38.7 89.3 89.3 6.7 11.3 6.1 25.8 26.2 0.00 0.5560000 79.3
2020-08-01 17:30:00 90.8 16.7 39.5 90.8 90.8 4.9 9.7 7.1 71.4 19.9 0.00 0.5550000 79.3
2020-08-01 17:35:00 91.0 16.4 39.2 91.0 91.0 4.7 12.8 6.8 13.4 14.6 0.00 0.1140000 79.2
2020-08-01 17:40:00 90.2 17.7 40.5 90.2 90.2 3.8 9.2 6.3 73.8 17.0 0.00 0.4990000 79.1
2020-08-01 17:45:00 90.1 18.5 41.6 90.1 90.1 6.2 12.2 6.7 7.5 5.2 0.00 0.4910000 79.0
2020-08-01 17:50:00 91.1 18.0 41.7 91.1 91.1 3.8 8.7 4.7 22.8 18.5 0.00 0.4630000 79.0
2020-08-01 17:55:00 92.3 14.8 37.7 92.3 92.3 4.7 7.8 4.5 52.7 5.3 0.00 0.4520000 78.9
2020-08-01 18:00:00 92.6 16.8 41.1 92.6 92.6 3.7 7.8 4.6 29.1 31.7 0.00 0.1590000 78.8
2020-08-01 18:05:00 91.4 15.5 38.0 91.4 91.4 5.5 5.6 3.6 75.8 29.2 0.00 0.4260000 78.7
2020-08-01 18:10:00 91.7 19.5 44.3 91.7 91.7 3.3 5.1 3.6 342.2 10.8 0.00 0.4120000 78.7
2020-08-01 18:15:00 91.1 19.3 43.5 91.1 91.1 3.8 4.9 3.4 23.3 9.4 0.00 0.3940000 78.6
2020-08-01 18:20:00 91.8 17.9 42.1 91.8 91.8 4.2 6.7 3.4 339.6 12.7 0.00 0.3700000 78.5
2020-08-01 18:25:00 91.7 15.5 38.3 91.7 91.7 7.2 7.2 4.1 3.3 8.2 0.00 0.3410000 78.4
2020-08-01 18:30:00 91.5 18.9 43.3 91.5 91.5 2.6 7.6 4.3 330.3 15.6 0.00 0.3240000 78.4
2020-08-01 18:35:00 91.9 14.8 37.3 91.9 91.9 3.5 5.8 3.9 104.9 31.7 0.00 0.1220000 78.3
2020-08-01 18:40:00 91.7 15.7 38.7 91.7 91.7 1.9 4.4 2.8 76.1 38.0 0.00 0.1600000 78.2
2020-08-01 18:45:00 91.5 19.9 44.6 91.5 91.5 1.7 3.8 2.4 339.7 5.0 0.00 0.1240000 78.2
2020-08-01 18:50:00 89.6 20.7 44.1 89.6 89.6 2.4 6.3 3.5 45.2 0.7 0.00 0.1800000 78.1
2020-08-01 18:55:00 89.4 17.5 39.6 89.4 89.4 5.5 6.3 4.6 0.6 17.5 0.00 0.2340000 78.0
2020-08-01 19:00:00 89.8 19.3 42.5 89.8 89.8 3.0 9.2 5.5 93.2 25.3 0.00 0.2310000 77.9
2020-08-01 19:05:00 89.8 17.3 39.5 89.8 89.8 8.0 8.0 4.6 27.7 14.1 0.00 0.1330000 77.9
2020-08-01 19:10:00 88.4 18.5 40.3 88.4 88.4 18.5 18.5 8.3 11.6 27.7 0.00 0.1200000 77.8
2020-08-01 19:15:00 86.2 18.9 39.0 86.2 86.2 11.5 13.7 9.5 334.9 24.2 0.00 0.1330000 77.7
2020-08-01 19:20:00 85.4 20.4 40.3 85.4 85.4 8.3 14.6 9.1 42.2 29.8 0.00 0.1210000 77.7
2020-08-01 19:25:00 85.2 20.2 39.8 85.2 85.2 7.2 10.6 7.4 17.2 33.3 0.00 0.1370000 77.6
2020-08-01 19:30:00 85.0 20.5 40.1 85.0 85.0 4.0 11.3 7.4 66.4 34.7 0.00 0.1230000 77.5
2020-08-01 19:35:00 85.0 19.7 39.0 85.0 85.0 5.5 8.8 6.2 24.7 23.4 0.00 0.1000000 77.4
2020-08-01 19:40:00 84.7 20.2 39.5 84.7 84.7 7.8 9.0 5.9 64.3 21.6 0.00 0.0870000 77.2
2020-08-01 19:45:00 84.7 19.7 38.8 84.7 84.7 5.8 11.9 7.2 104.5 33.6 0.00 0.0750000 77.1
2020-08-01 19:50:00 84.7 19.5 38.6 84.7 84.7 7.4 7.4 4.7 9.4 26.2 0.00 0.0610000 77.1
2020-08-01 19:55:00 84.5 19.4 38.3 84.5 84.5 4.9 8.8 4.7 66.7 27.4 0.00 0.0490000 77.0
2020-08-01 20:00:00 84.1 19.6 38.2 84.1 84.1 6.2 7.2 4.4 80.0 27.6 0.00 0.0360000 76.8
2020-08-01 20:05:00 83.9 19.9 38.4 83.9 83.9 2.8 10.5 4.6 3.7 22.2 0.00 0.0270000 76.8
2020-08-01 20:10:00 83.8 19.4 37.7 83.8 83.8 6.2 8.3 4.2 27.3 31.1 0.00 0.0180000 76.6
2020-08-01 20:15:00 83.7 19.7 38.0 83.7 83.7 4.6 9.0 5.2 64.5 34.6 0.00 0.0140000 76.6
2020-08-01 20:20:00 82.9 21.0 39.0 82.9 82.9 3.3 7.4 3.6 43.3 35.2 0.00 0.0080000 76.5
2020-08-01 20:25:00 82.4 20.6 38.0 82.4 82.4 4.7 5.8 3.4 16.4 21.1 0.00 0.0020000 76.4
2020-08-01 20:30:00 82.5 22.3 40.1 82.5 82.5 3.5 5.8 4.1 34.7 33.1 0.00 0.0010000 76.3
2020-08-01 20:35:00 82.2 21.4 38.8 82.2 82.2 2.8 6.7 3.8 34.7 25.6 0.00 0.0010000 76.2
2020-08-01 20:40:00 81.7 21.6 38.7 81.7 81.7 3.8 4.7 2.9 95.6 36.6 0.00 0.0000000 76.1
2020-08-01 20:45:00 80.9 23.0 39.7 80.9 80.9 1.9 2.8 1.8 130.2 39.3 0.00 0.0000000 76.0
2020-08-01 20:50:00 80.8 21.3 37.6 80.8 80.8 2.1 3.7 2.3 95.3 104.1 0.00 0.0000000 76.0
2020-08-01 20:55:00 80.8 21.1 37.4 80.8 80.8 5.3 5.3 2.3 93.2 101.0 0.00 0.0000000 75.9
2020-08-01 21:00:00 81.2 21.5 38.2 81.2 81.2 1.9 3.7 2.4 55.7 86.9 0.00 0.0000000 75.8
2020-08-01 21:05:00 80.6 22.0 38.2 80.6 80.6 1.9 2.6 1.8 26.1 56.9 0.00 0.0000000 75.7
2020-08-01 21:10:00 80.3 22.4 38.5 80.3 80.3 1.0 2.6 1.7 339.3 6.5 0.00 0.0000000 75.7
2020-08-01 21:15:00 80.0 22.0 37.7 80.0 80.0 3.0 3.0 1.8 99.4 75.3 0.00 0.0000000 75.6
2020-08-01 21:20:00 79.8 21.6 37.2 79.8 79.8 1.2 3.0 1.8 81.6 98.8 0.00 0.0000000 75.5
2020-08-01 21:25:00 80.0 21.3 36.9 80.0 80.0 1.3 3.5 1.8 106.1 114.1 0.00 0.0000000 75.5
2020-08-01 21:30:00 79.7 23.9 39.6 79.7 79.7 1.2 3.1 1.6 107.1 79.3 0.00 0.0000000 75.4
2020-08-01 21:35:00 79.5 25.4 41.1 79.5 79.5 3.1 3.1 1.8 152.8 138.7 0.00 0.0000000 75.3
2020-08-01 21:40:00 75.5 34.0 45.2 75.5 75.5 4.6 4.9 4.3 151.3 158.6 0.00 0.0000000 75.2
2020-08-01 21:45:00 73.5 35.2 44.3 73.5 73.5 3.8 5.1 4.4 122.8 146.3 0.00 0.0000000 75.2
2020-08-01 21:50:00 73.3 33.9 43.2 73.3 73.3 1.3 3.8 1.7 15.7 60.8 0.00 0.0000000 75.1
2020-08-01 21:55:00 73.5 30.8 40.9 73.5 73.5 0.0 1.3 0.8 16.7 26.7 0.00 0.0000000 75.0
2020-08-01 22:00:00 73.5 32.8 42.5 73.5 73.5 2.1 2.4 1.6 19.0 115.3 0.00 0.0000000 74.9
2020-08-01 22:05:00 75.4 27.2 39.2 75.4 75.4 3.8 5.1 3.6 136.5 114.9 0.00 0.0000000 74.8
2020-08-01 22:10:00 76.2 24.6 37.5 76.2 76.2 5.8 5.8 2.5 123.4 94.8 0.00 0.0000000 74.7
2020-08-01 22:15:00 77.6 25.1 39.1 77.6 77.6 4.7 6.9 4.2 135.2 116.3 0.00 0.0000000 74.7
2020-08-01 22:20:00 77.0 26.5 40.0 77.0 77.0 7.4 8.7 6.2 132.1 119.6 0.00 0.0000000 74.6
2020-08-01 22:25:00 75.4 28.6 40.6 75.4 75.4 6.7 8.1 6.2 126.9 121.1 0.00 0.0000000 74.5
2020-08-01 22:30:00 74.8 29.3 40.6 74.8 74.8 6.5 8.0 6.2 135.6 121.1 0.00 0.0000000 74.4
2020-08-01 22:35:00 74.9 27.9 39.5 74.9 74.9 5.5 9.0 6.5 149.0 115.8 0.00 0.0000000 74.3
2020-08-01 22:40:00 75.4 27.1 39.1 75.4 75.4 8.8 9.6 7.4 125.2 120.4 0.00 0.0000000 74.2
2020-08-01 22:45:00 75.7 27.0 39.3 75.7 75.7 8.1 9.9 8.3 114.9 123.4 0.00 0.0000000 74.1
2020-08-01 22:50:00 75.8 26.9 39.4 75.8 75.8 8.3 11.5 8.5 114.3 123.9 0.00 0.0000000 74.0
2020-08-01 22:55:00 75.5 27.3 39.4 75.5 75.5 6.9 11.3 8.2 104.0 125.1 0.00 0.0000000 73.9
2020-08-01 23:00:00 75.8 27.0 39.4 75.8 75.8 6.0 9.9 7.4 128.5 118.1 0.00 0.0000000 73.8
2020-08-01 23:05:00 75.6 26.3 38.6 75.6 75.6 5.5 8.3 6.3 151.5 118.4 0.00 0.0000000 73.7
2020-08-01 23:10:00 76.3 25.8 38.7 76.3 76.3 6.7 9.7 7.4 118.8 116.9 0.00 0.0000000 73.5
2020-08-01 23:15:00 76.2 26.9 39.7 76.2 76.2 6.2 9.4 7.6 123.6 119.5 0.00 0.0000000 73.5
2020-08-01 23:20:00 75.9 26.8 39.4 75.9 75.9 6.2 8.8 7.0 135.5 120.7 0.00 0.0000000 73.4
2020-08-01 23:25:00 75.2 29.1 40.8 75.2 75.2 5.8 8.0 6.5 130.0 127.1 0.00 0.0000000 73.3
2020-08-01 23:30:00 74.9 29.7 41.1 74.9 74.9 6.5 7.4 5.4 97.9 116.9 0.00 0.0000000 73.2
2020-08-01 23:35:00 74.6 30.5 41.5 74.6 74.6 4.9 6.9 5.3 127.2 114.7 0.00 0.0000000 73.1
2020-08-01 23:40:00 74.8 30.3 41.5 74.8 74.8 4.6 8.5 5.9 82.3 116.5 0.00 0.0000000 73.0
2020-08-01 23:45:00 74.8 30.3 41.5 74.8 74.8 4.2 8.0 5.6 90.7 107.8 0.00 0.0000000 72.9
2020-08-01 23:50:00 74.9 29.9 41.3 74.9 74.9 3.8 6.2 4.3 81.2 107.2 0.00 0.0000000 72.8
2020-08-01 23:55:00 74.8 30.3 41.5 74.8 74.8 4.0 6.0 4.1 83.0 106.1 0.00 0.0000000 72.8
2020-08-02 00:00:00 74.6 30.2 41.3 74.6 74.6 3.1 5.5 3.4 117.4 99.5 0.00 0.0000000 72.7

Data is courtesy of the NM Climate Center. DO NOT USE IN LEGAL PROCEEDINGS.